Big Cove, Alabama
Current Conditions -  °F | °C
As of 5:53 AM on Friday 24 Oct 2014 (Local Time) from KHSV Reporting Station
Broken Clouds Broken Clouds  
Wind Chill: 47°   Ceiling: 25000
Heat Index: 49°   Visibility: 10mi
Dew Point: 44°   Wind: 5mph
Humidity: 83%   Direction: 200°SSW
Pressure: 30.1"   Gusts: NA
Location:  34.611°N, 86.4644°W
Report Text: KHSV 241053Z 20004KT 10SM SCT180 BKN250 09/07 A3010 RMK AO2 SLP192 FIRST T00940067
Loading
Personal Weather Stations






























Interactive Weather Map
Tropical Storm Tracking
New forecast layout! Learn more

10-Day Weather Forecast

Advertisements
Track Severe Weather on mobile